Terminal Aerodrome Forecast
Issued by NWS

Home | Current Version | Previous Version | Text Only | Print | Product List | Glossary On
Versions: 1 2 3 4 5 6 7 8 9 10 11 12 13
000
FTUS43 KLSX 200539
TAFCPS
TAF
KCPS 200539Z 2006/2106 17007KT P6SM OVC250
     FM201300 20008KT P6SM OVC018
     FM201800 19009KT P6SM OVC025
     FM210000 15006KT P6SM OVC018=

USA.gov is the U.S. government's official web portal to all federal, state and local government web resources and services.